sensor_id;sensor_type;location;lat;lon;timestamp;temperature;humidity
66035;HTU21D;52805;51.074;5.842;2023-05-17T00:01:28;11.28;118.99
66035;HTU21D;52805;51.074;5.842;2023-05-17T00:03:54;11.26;118.99
66035;HTU21D;52805;51.074;5.842;2023-05-17T00:06:21;11.24;118.99
66035;HTU21D;52805;51.074;5.842;2023-05-17T00:08:46;11.19;118.99
66035;HTU21D;52805;51.074;5.842;2023-05-17T00:11:12;11.10;118.99
66035;HTU21D;52805;51.074;5.842;2023-05-17T00:13:38;11.07;118.99
66035;HTU21D;52805;51.074;5.842;2023-05-17T00:16:06;11.02;118.99
66035;HTU21D;52805;51.074;5.842;2023-05-17T00:18:31;11.02;118.99
66035;HTU21D;52805;51.074;5.842;2023-05-17T00:20:57;11.03;118.99
66035;HTU21D;52805;51.074;5.842;2023-05-17T00:23:23;11.05;118.99
66035;HTU21D;52805;51.074;5.842;2023-05-17T00:25:48;11.05;118.99
66035;HTU21D;52805;51.074;5.842;2023-05-17T00:28:14;11.02;118.99
66035;HTU21D;52805;51.074;5.842;2023-05-17T00:30:40;11.00;118.99
66035;HTU21D;52805;51.074;5.842;2023-05-17T00:33:06;10.97;118.99
66035;HTU21D;52805;51.074;5.842;2023-05-17T00:35:31;10.90;118.99
66035;HTU21D;52805;51.074;5.842;2023-05-17T00:37:57;10.84;118.99
66035;HTU21D;52805;51.074;5.842;2023-05-17T00:40:23;10.84;118.99
66035;HTU21D;52805;51.074;5.842;2023-05-17T00:42:48;10.83;118.99
66035;HTU21D;52805;51.074;5.842;2023-05-17T00:45:14;10.78;118.99
66035;HTU21D;52805;51.074;5.842;2023-05-17T00:47:40;10.69;118.99
66035;HTU21D;52805;51.074;5.842;2023-05-17T00:50:08;10.66;118.99
66035;HTU21D;52805;51.074;5.842;2023-05-17T00:52:35;10.66;118.99
66035;HTU21D;52805;51.074;5.842;2023-05-17T00:55:01;10.66;118.99
66035;HTU21D;52805;51.074;5.842;2023-05-17T00:57:27;10.63;118.99
66035;HTU21D;52805;51.074;5.842;2023-05-17T00:59:55;10.56;118.99
66035;HTU21D;52805;51.074;5.842;2023-05-17T01:02:21;10.55;118.99
66035;HTU21D;52805;51.074;5.842;2023-05-17T01:04:47;10.57;118.99
66035;HTU21D;52805;51.074;5.842;2023-05-17T01:07:13;10.53;118.99
66035;HTU21D;52805;51.074;5.842;2023-05-17T01:09:39;10.50;118.99
66035;HTU21D;52805;51.074;5.842;2023-05-17T01:15:05;10.55;118.99
66035;HTU21D;52805;51.074;5.842;2023-05-17T01:20:37;10.51;118.99
66035;HTU21D;52805;51.074;5.842;2023-05-17T01:26:18;10.50;118.99
66035;HTU21D;52805;51.074;5.842;2023-05-17T01:28:51;10.50;118.99
66035;HTU21D;52805;51.074;5.842;2023-05-17T01:31:17;10.45;118.99
66035;HTU21D;52805;51.074;5.842;2023-05-17T01:33:43;10.39;118.99
66035;HTU21D;52805;51.074;5.842;2023-05-17T01:36:09;10.35;118.99
66035;HTU21D;52805;51.074;5.842;2023-05-17T01:38:35;10.34;118.99
66035;HTU21D;52805;51.074;5.842;2023-05-17T01:41:16;10.35;118.99
66035;HTU21D;52805;51.074;5.842;2023-05-17T01:49:05;10.33;118.99
66035;HTU21D;52805;51.074;5.842;2023-05-17T01:52:23;10.31;118.99
66035;HTU21D;52805;51.074;5.842;2023-05-17T01:54:30;10.27;118.99
66035;HTU21D;52805;51.074;5.842;2023-05-17T01:57:10;10.26;118.99
66035;HTU21D;52805;51.074;5.842;2023-05-17T01:59:37;10.24;118.99
66035;HTU21D;52805;51.074;5.842;2023-05-17T02:02:04;10.22;118.99
66035;HTU21D;52805;51.074;5.842;2023-05-17T02:04:35;10.19;118.99
66035;HTU21D;52805;51.074;5.842;2023-05-17T02:07:03;10.15;118.99
66035;HTU21D;52805;51.074;5.842;2023-05-17T02:09:30;10.12;118.99
66035;HTU21D;52805;51.074;5.842;2023-05-17T02:11:55;10.09;118.99
66035;HTU21D;52805;51.074;5.842;2023-05-17T02:14:21;10.08;118.99
66035;HTU21D;52805;51.074;5.842;2023-05-17T02:16:47;10.07;118.99
66035;HTU21D;52805;51.074;5.842;2023-05-17T02:19:13;10.06;118.99
66035;HTU21D;52805;51.074;5.842;2023-05-17T02:21:39;10.01;118.99
66035;HTU21D;52805;51.074;5.842;2023-05-17T02:24:05;10.01;118.99
66035;HTU21D;52805;51.074;5.842;2023-05-17T02:26:31;9.99;118.99
66035;HTU21D;52805;51.074;5.842;2023-05-17T02:28:57;9.95;118.99
66035;HTU21D;52805;51.074;5.842;2023-05-17T02:31:23;9.92;118.99
66035;HTU21D;52805;51.074;5.842;2023-05-17T02:33:52;9.93;118.99
66035;HTU21D;52805;51.074;5.842;2023-05-17T02:36:18;9.89;118.99
66035;HTU21D;52805;51.074;5.842;2023-05-17T02:38:44;9.85;118.99
66035;HTU21D;52805;51.074;5.842;2023-05-17T02:41:11;9.81;118.99
66035;HTU21D;52805;51.074;5.842;2023-05-17T02:43:37;9.79;118.99
66035;HTU21D;52805;51.074;5.842;2023-05-17T02:46:03;9.78;118.99
66035;HTU21D;52805;51.074;5.842;2023-05-17T02:48:28;9.76;118.99
66035;HTU21D;52805;51.074;5.842;2023-05-17T02:50:54;9.74;118.99
66035;HTU21D;52805;51.074;5.842;2023-05-17T02:53:20;9.72;118.99
66035;HTU21D;52805;51.074;5.842;2023-05-17T02:55:45;9.71;118.99
66035;HTU21D;52805;51.074;5.842;2023-05-17T02:58:12;9.69;118.99
66035;HTU21D;52805;51.074;5.842;2023-05-17T03:00:38;9.68;118.99
66035;HTU21D;52805;51.074;5.842;2023-05-17T03:03:03;9.65;118.99
66035;HTU21D;52805;51.074;5.842;2023-05-17T03:05:32;9.62;118.99
66035;HTU21D;52805;51.074;5.842;2023-05-17T03:07:58;9.56;118.99
66035;HTU21D;52805;51.074;5.842;2023-05-17T03:10:23;9.55;118.99
66035;HTU21D;52805;51.074;5.842;2023-05-17T03:12:49;9.56;118.99
66035;HTU21D;52805;51.074;5.842;2023-05-17T03:15:18;9.54;118.99
66035;HTU21D;52805;51.074;5.842;2023-05-17T03:17:44;9.54;118.99
66035;HTU21D;52805;51.074;5.842;2023-05-17T03:20:10;9.49;118.99
66035;HTU21D;52805;51.074;5.842;2023-05-17T03:22:36;9.48;118.99
66035;HTU21D;52805;51.074;5.842;2023-05-17T03:25:02;9.45;118.99
66035;HTU21D;52805;51.074;5.842;2023-05-17T03:27:29;9.40;118.99
66035;HTU21D;52805;51.074;5.842;2023-05-17T03:29:55;9.41;118.99
66035;HTU21D;52805;51.074;5.842;2023-05-17T03:32:22;9.41;118.99
66035;HTU21D;52805;51.074;5.842;2023-05-17T03:34:48;9.44;118.99
66035;HTU21D;52805;51.074;5.842;2023-05-17T03:37:14;9.44;118.99
66035;HTU21D;52805;51.074;5.842;2023-05-17T03:39:41;9.41;118.99
66035;HTU21D;52805;51.074;5.842;2023-05-17T03:42:06;9.42;118.99
66035;HTU21D;52805;51.074;5.842;2023-05-17T03:44:33;9.46;118.99
66035;HTU21D;52805;51.074;5.842;2023-05-17T03:46:58;9.47;118.99
66035;HTU21D;52805;51.074;5.842;2023-05-17T03:49:25;9.48;118.99
66035;HTU21D;52805;51.074;5.842;2023-05-17T03:51:51;9.49;118.99
66035;HTU21D;52805;51.074;5.842;2023-05-17T03:54:17;9.49;118.99
66035;HTU21D;52805;51.074;5.842;2023-05-17T03:56:44;9.53;118.99
66035;HTU21D;52805;51.074;5.842;2023-05-17T03:59:12;9.54;118.99
66035;HTU21D;52805;51.074;5.842;2023-05-17T04:01:47;9.57;118.99
66035;HTU21D;52805;51.074;5.842;2023-05-17T04:04:14;9.65;118.99
66035;HTU21D;52805;51.074;5.842;2023-05-17T04:06:40;9.71;118.99
66035;HTU21D;52805;51.074;5.842;2023-05-17T04:09:06;9.77;118.99
66035;HTU21D;52805;51.074;5.842;2023-05-17T04:11:33;9.82;118.99
66035;HTU21D;52805;51.074;5.842;2023-05-17T04:13:58;9.84;118.99
66035;HTU21D;52805;51.074;5.842;2023-05-17T04:16:27;9.89;118.99
66035;HTU21D;52805;51.074;5.842;2023-05-17T04:18:53;9.95;118.99
66035;HTU21D;52805;51.074;5.842;2023-05-17T04:21:19;9.99;118.99
66035;HTU21D;52805;51.074;5.842;2023-05-17T04:23:45;10.05;118.99
66035;HTU21D;52805;51.074;5.842;2023-05-17T04:26:11;10.13;118.99
66035;HTU21D;52805;51.074;5.842;2023-05-17T04:28:38;10.19;118.99
66035;HTU21D;52805;51.074;5.842;2023-05-17T04:31:08;10.21;118.99
66035;HTU21D;52805;51.074;5.842;2023-05-17T04:33:35;10.24;118.99
66035;HTU21D;52805;51.074;5.842;2023-05-17T04:36:01;10.27;118.99
66035;HTU21D;52805;51.074;5.842;2023-05-17T04:38:30;10.34;118.99
66035;HTU21D;52805;51.074;5.842;2023-05-17T04:41:02;10.37;118.99
66035;HTU21D;52805;51.074;5.842;2023-05-17T04:43:31;10.41;118.99
66035;HTU21D;52805;51.074;5.842;2023-05-17T04:45:58;10.46;118.99
66035;HTU21D;52805;51.074;5.842;2023-05-17T04:48:25;10.52;118.99
66035;HTU21D;52805;51.074;5.842;2023-05-17T04:50:52;10.54;118.99
66035;HTU21D;52805;51.074;5.842;2023-05-17T04:53:18;10.59;118.99
66035;HTU21D;52805;51.074;5.842;2023-05-17T04:55:46;10.64;118.99
66035;HTU21D;52805;51.074;5.842;2023-05-17T04:58:14;10.68;118.99
66035;HTU21D;52805;51.074;5.842;2023-05-17T05:00:42;10.71;118.99
66035;HTU21D;52805;51.074;5.842;2023-05-17T05:03:09;10.71;118.99
66035;HTU21D;52805;51.074;5.842;2023-05-17T05:05:35;10.78;118.99
66035;HTU21D;52805;51.074;5.842;2023-05-17T05:08:01;10.82;118.99
66035;HTU21D;52805;51.074;5.842;2023-05-17T05:10:27;10.85;118.99
66035;HTU21D;52805;51.074;5.842;2023-05-17T05:12:53;10.90;118.99
66035;HTU21D;52805;51.074;5.842;2023-05-17T05:15:19;10.95;118.99
66035;HTU21D;52805;51.074;5.842;2023-05-17T05:17:51;11.00;118.99
66035;HTU21D;52805;51.074;5.842;2023-05-17T05:20:18;11.07;118.99
66035;HTU21D;52805;51.074;5.842;2023-05-17T05:22:46;11.13;118.99
66035;HTU21D;52805;51.074;5.842;2023-05-17T05:25:13;11.15;118.99
66035;HTU21D;52805;51.074;5.842;2023-05-17T05:27:38;11.17;118.99
66035;HTU21D;52805;51.074;5.842;2023-05-17T05:30:05;11.22;118.99
66035;HTU21D;52805;51.074;5.842;2023-05-17T05:32:31;11.19;118.99
66035;HTU21D;52805;51.074;5.842;2023-05-17T05:34:57;11.19;118.99
66035;HTU21D;52805;51.074;5.842;2023-05-17T05:37:22;11.18;118.99
66035;HTU21D;52805;51.074;5.842;2023-05-17T05:39:48;11.18;118.99
66035;HTU21D;52805;51.074;5.842;2023-05-17T05:42:14;11.13;118.99
66035;HTU21D;52805;51.074;5.842;2023-05-17T05:44:40;11.10;118.99
66035;HTU21D;52805;51.074;5.842;2023-05-17T05:47:07;11.09;118.99
66035;HTU21D;52805;51.074;5.842;2023-05-17T05:49:33;11.07;118.99
66035;HTU21D;52805;51.074;5.842;2023-05-17T05:51:59;11.09;118.99
66035;HTU21D;52805;51.074;5.842;2023-05-17T05:54:27;11.08;118.99
66035;HTU21D;52805;51.074;5.842;2023-05-17T05:56:52;11.11;118.99
66035;HTU21D;52805;51.074;5.842;2023-05-17T05:59:19;11.12;118.99
66035;HTU21D;52805;51.074;5.842;2023-05-17T06:01:45;11.13;118.99
66035;HTU21D;52805;51.074;5.842;2023-05-17T06:04:10;11.13;118.99
66035;HTU21D;52805;51.074;5.842;2023-05-17T06:06:36;11.15;118.99
66035;HTU21D;52805;51.074;5.842;2023-05-17T06:09:02;11.17;118.99
66035;HTU21D;52805;51.074;5.842;2023-05-17T06:11:28;11.19;118.99
66035;HTU21D;52805;51.074;5.842;2023-05-17T06:13:54;11.28;118.99
66035;HTU21D;52805;51.074;5.842;2023-05-17T06:16:19;11.38;118.99
66035;HTU21D;52805;51.074;5.842;2023-05-17T06:18:45;11.46;118.99
66035;HTU21D;52805;51.074;5.842;2023-05-17T06:21:11;11.51;118.99
66035;HTU21D;52805;51.074;5.842;2023-05-17T06:23:39;11.56;118.99
66035;HTU21D;52805;51.074;5.842;2023-05-17T06:26:05;11.67;118.99
66035;HTU21D;52805;51.074;5.842;2023-05-17T06:28:35;11.71;118.99
66035;HTU21D;52805;51.074;5.842;2023-05-17T06:31:01;11.90;118.99
66035;HTU21D;52805;51.074;5.842;2023-05-17T06:33:27;12.02;118.99
66035;HTU21D;52805;51.074;5.842;2023-05-17T06:35:54;12.13;118.99
66035;HTU21D;52805;51.074;5.842;2023-05-17T06:38:19;12.25;118.99
66035;HTU21D;52805;51.074;5.842;2023-05-17T06:40:45;12.30;118.99
66035;HTU21D;52805;51.074;5.842;2023-05-17T06:43:11;12.28;118.99
66035;HTU21D;52805;51.074;5.842;2023-05-17T06:45:36;12.30;118.99
66035;HTU21D;52805;51.074;5.842;2023-05-17T06:48:02;12.35;118.99
66035;HTU21D;52805;51.074;5.842;2023-05-17T06:50:28;12.38;118.99
66035;HTU21D;52805;51.074;5.842;2023-05-17T06:52:54;12.32;118.99
66035;HTU21D;52805;51.074;5.842;2023-05-17T06:55:20;12.32;118.99
66035;HTU21D;52805;51.074;5.842;2023-05-17T06:57:46;12.36;118.99
66035;HTU21D;52805;51.074;5.842;2023-05-17T07:00:12;12.37;118.99
66035;HTU21D;52805;51.074;5.842;2023-05-17T07:02:38;12.40;118.99
66035;HTU21D;52805;51.074;5.842;2023-05-17T07:05:04;12.45;118.99
66035;HTU21D;52805;51.074;5.842;2023-05-17T07:07:31;12.53;118.99
66035;HTU21D;52805;51.074;5.842;2023-05-17T07:09:56;12.61;118.99
66035;HTU21D;52805;51.074;5.842;2023-05-17T07:12:22;12.64;118.99
66035;HTU21D;52805;51.074;5.842;2023-05-17T07:14:48;12.73;118.99
66035;HTU21D;52805;51.074;5.842;2023-05-17T07:17:13;12.86;118.99
66035;HTU21D;52805;51.074;5.842;2023-05-17T07:19:39;12.89;118.99
66035;HTU21D;52805;51.074;5.842;2023-05-17T07:22:05;12.94;118.99
66035;HTU21D;52805;51.074;5.842;2023-05-17T07:24:32;13.02;118.99
66035;HTU21D;52805;51.074;5.842;2023-05-17T07:26:57;13.03;118.99
66035;HTU21D;52805;51.074;5.842;2023-05-17T07:29:23;13.06;118.99
66035;HTU21D;52805;51.074;5.842;2023-05-17T07:31:49;13.08;118.99
66035;HTU21D;52805;51.074;5.842;2023-05-17T07:34:15;13.12;118.99
66035;HTU21D;52805;51.074;5.842;2023-05-17T07:36:40;13.15;118.99
66035;HTU21D;52805;51.074;5.842;2023-05-17T07:39:06;13.23;118.99
66035;HTU21D;52805;51.074;5.842;2023-05-17T07:41:33;13.35;118.99
66035;HTU21D;52805;51.074;5.842;2023-05-17T07:43:59;13.44;118.99
66035;HTU21D;52805;51.074;5.842;2023-05-17T07:46:25;13.58;118.99
66035;HTU21D;52805;51.074;5.842;2023-05-17T07:48:50;13.64;118.99
66035;HTU21D;52805;51.074;5.842;2023-05-17T07:51:16;13.69;118.99
66035;HTU21D;52805;51.074;5.842;2023-05-17T07:53:41;13.77;118.99
66035;HTU21D;52805;51.074;5.842;2023-05-17T07:56:07;13.78;118.99
66035;HTU21D;52805;51.074;5.842;2023-05-17T07:58:33;13.86;118.99
66035;HTU21D;52805;51.074;5.842;2023-05-17T08:00:58;14.07;118.99
66035;HTU21D;52805;51.074;5.842;2023-05-17T08:03:24;14.22;118.99
66035;HTU21D;52805;51.074;5.842;2023-05-17T08:05:50;14.18;118.99
66035;HTU21D;52805;51.074;5.842;2023-05-17T08:08:15;14.12;118.99
66035;HTU21D;52805;51.074;5.842;2023-05-17T08:10:41;14.07;118.99
66035;HTU21D;52805;51.074;5.842;2023-05-17T08:20:42;14.08;118.99
66035;HTU21D;52805;51.074;5.842;2023-05-17T08:23:08;14.20;118.99
66035;HTU21D;52805;51.074;5.842;2023-05-17T08:25:33;14.34;118.99
66035;HTU21D;52805;51.074;5.842;2023-05-17T08:27:59;14.49;118.99
66035;HTU21D;52805;51.074;5.842;2023-05-17T08:30:25;14.68;118.99
66035;HTU21D;52805;51.074;5.842;2023-05-17T08:32:51;14.77;118.99
66035;HTU21D;52805;51.074;5.842;2023-05-17T08:35:17;14.87;118.99
66035;HTU21D;52805;51.074;5.842;2023-05-17T08:37:43;15.08;118.99
66035;HTU21D;52805;51.074;5.842;2023-05-17T08:40:08;15.30;118.99
66035;HTU21D;52805;51.074;5.842;2023-05-17T08:42:36;15.48;118.99
66035;HTU21D;52805;51.074;5.842;2023-05-17T08:45:04;15.63;118.99
66035;HTU21D;52805;51.074;5.842;2023-05-17T08:47:34;15.73;118.99
66035;HTU21D;52805;51.074;5.842;2023-05-17T08:50:05;15.87;118.99
66035;HTU21D;52805;51.074;5.842;2023-05-17T08:52:35;15.99;118.99
66035;HTU21D;52805;51.074;5.842;2023-05-17T08:55:02;16.13;118.99
66035;HTU21D;52805;51.074;5.842;2023-05-17T08:57:34;16.18;118.99
66035;HTU21D;52805;51.074;5.842;2023-05-17T09:00:07;16.15;118.99
66035;HTU21D;52805;51.074;5.842;2023-05-17T09:02:38;16.14;118.99
66035;HTU21D;52805;51.074;5.842;2023-05-17T09:05:07;16.07;118.99
66035;HTU21D;52805;51.074;5.842;2023-05-17T09:07:34;15.90;118.99
66035;HTU21D;52805;51.074;5.842;2023-05-17T09:10:00;15.62;118.99
66035;HTU21D;52805;51.074;5.842;2023-05-17T09:12:33;15.49;118.99
66035;HTU21D;52805;51.074;5.842;2023-05-17T09:15:16;15.40;118.99
66035;HTU21D;52805;51.074;5.842;2023-05-17T09:17:52;15.31;118.99
66035;HTU21D;52805;51.074;5.842;2023-05-17T09:20:23;15.32;118.99
66035;HTU21D;52805;51.074;5.842;2023-05-17T09:22:50;15.29;118.99
66035;HTU21D;52805;51.074;5.842;2023-05-17T09:25:23;15.29;118.99
66035;HTU21D;52805;51.074;5.842;2023-05-17T09:27:52;15.31;118.99
66035;HTU21D;52805;51.074;5.842;2023-05-17T09:30:18;15.22;118.99
66035;HTU21D;52805;51.074;5.842;2023-05-17T09:32:44;15.10;118.99
66035;HTU21D;52805;51.074;5.842;2023-05-17T09:35:12;15.07;118.99
66035;HTU21D;52805;51.074;5.842;2023-05-17T09:37:38;14.99;118.99
66035;HTU21D;52805;51.074;5.842;2023-05-17T09:40:05;14.97;118.99
66035;HTU21D;52805;51.074;5.842;2023-05-17T09:42:33;14.95;118.99
66035;HTU21D;52805;51.074;5.842;2023-05-17T09:45:04;15.04;118.99
66035;HTU21D;52805;51.074;5.842;2023-05-17T09:47:30;15.19;118.99
66035;HTU21D;52805;51.074;5.842;2023-05-17T09:50:00;15.36;118.99
66035;HTU21D;52805;51.074;5.842;2023-05-17T09:52:28;15.48;118.99
66035;HTU21D;52805;51.074;5.842;2023-05-17T09:54:58;15.69;118.99
66035;HTU21D;52805;51.074;5.842;2023-05-17T09:57:36;16.00;118.99
66035;HTU21D;52805;51.074;5.842;2023-05-17T10:00:03;16.29;118.99
66035;HTU21D;52805;51.074;5.842;2023-05-17T10:02:41;16.56;118.99
66035;HTU21D;52805;51.074;5.842;2023-05-17T10:05:11;16.64;118.99
66035;HTU21D;52805;51.074;5.842;2023-05-17T10:07:38;16.65;118.99
66035;HTU21D;52805;51.074;5.842;2023-05-17T10:10:06;16.72;118.99
66035;HTU21D;52805;51.074;5.842;2023-05-17T10:12:33;16.74;118.99
66035;HTU21D;52805;51.074;5.842;2023-05-17T10:15:00;16.66;118.99
66035;HTU21D;52805;51.074;5.842;2023-05-17T10:17:26;16.69;118.99
66035;HTU21D;52805;51.074;5.842;2023-05-17T10:19:55;16.76;118.99
66035;HTU21D;52805;51.074;5.842;2023-05-17T10:22:22;16.87;118.99
66035;HTU21D;52805;51.074;5.842;2023-05-17T10:24:49;17.10;118.99
66035;HTU21D;52805;51.074;5.842;2023-05-17T10:27:16;17.23;118.99
66035;HTU21D;52805;51.074;5.842;2023-05-17T10:29:43;17.29;118.99
66035;HTU21D;52805;51.074;5.842;2023-05-17T10:32:12;17.44;118.99
66035;HTU21D;52805;51.074;5.842;2023-05-17T10:34:39;17.62;118.99
66035;HTU21D;52805;51.074;5.842;2023-05-17T10:37:05;17.68;118.44
66035;HTU21D;52805;51.074;5.842;2023-05-17T10:39:33;17.69;118.99
66035;HTU21D;52805;51.074;5.842;2023-05-17T10:42:06;17.77;115.18
66035;HTU21D;52805;51.074;5.842;2023-05-17T10:44:33;17.83;105.39
66035;HTU21D;52805;51.074;5.842;2023-05-17T10:47:00;17.96;105.95
66035;HTU21D;52805;51.074;5.842;2023-05-17T10:49:30;18.09;85.09
66035;HTU21D;52805;51.074;5.842;2023-05-17T10:52:19;18.25;101.94
66035;HTU21D;52805;51.074;5.842;2023-05-17T10:54:47;18.53;101.65
66035;HTU21D;52805;51.074;5.842;2023-05-17T10:57:34;18.80;95.68
66035;HTU21D;52805;51.074;5.842;2023-05-17T11:00:03;18.88;83.72
66035;HTU21D;52805;51.074;5.842;2023-05-17T11:02:33;18.85;85.80
66035;HTU21D;52805;51.074;5.842;2023-05-17T11:04:59;18.69;86.23
66035;HTU21D;52805;51.074;5.842;2023-05-17T11:07:30;18.42;87.58
66035;HTU21D;52805;51.074;5.842;2023-05-17T11:10:11;18.11;94.02
66035;HTU21D;52805;51.074;5.842;2023-05-17T11:12:40;17.79;97.41
66035;HTU21D;52805;51.074;5.842;2023-05-17T11:15:15;17.69;101.70
66035;HTU21D;52805;51.074;5.842;2023-05-17T11:25:33;18.44;83.02
66035;HTU21D;52805;51.074;5.842;2023-05-17T11:28:06;18.48;90.37
66035;HTU21D;52805;51.074;5.842;2023-05-17T11:30:32;18.41;81.99
66035;HTU21D;52805;51.074;5.842;2023-05-17T11:33:05;18.29;91.05
66035;HTU21D;52805;51.074;5.842;2023-05-17T11:35:33;18.23;91.16
66035;HTU21D;52805;51.074;5.842;2023-05-17T11:38:17;18.32;81.28
66035;HTU21D;52805;51.074;5.842;2023-05-17T11:40:48;18.42;79.11
66035;HTU21D;52805;51.074;5.842;2023-05-17T11:43:15;18.44;82.23
66035;HTU21D;52805;51.074;5.842;2023-05-17T11:45:43;18.49;78.34
66035;HTU21D;52805;51.074;5.842;2023-05-17T11:48:11;18.64;82.19
66035;HTU21D;52805;51.074;5.842;2023-05-17T11:50:37;18.80;80.30
66035;HTU21D;52805;51.074;5.842;2023-05-17T11:53:05;18.93;80.62
66035;HTU21D;52805;51.074;5.842;2023-05-17T11:55:36;19.09;83.39
66035;HTU21D;52805;51.074;5.842;2023-05-17T11:58:03;19.20;79.96
66035;HTU21D;52805;51.074;5.842;2023-05-17T12:00:29;19.23;80.11
66035;HTU21D;52805;51.074;5.842;2023-05-17T12:02:54;19.12;82.78
66035;HTU21D;52805;51.074;5.842;2023-05-17T12:05:20;19.07;82.17
66035;HTU21D;52805;51.074;5.842;2023-05-17T12:07:47;19.10;81.62
66035;HTU21D;52805;51.074;5.842;2023-05-17T12:10:14;19.17;82.86
66035;HTU21D;52805;51.074;5.842;2023-05-17T12:12:40;19.28;80.01
66035;HTU21D;52805;51.074;5.842;2023-05-17T12:15:07;19.47;78.14
66035;HTU21D;52805;51.074;5.842;2023-05-17T12:17:41;19.66;64.83
66035;HTU21D;52805;51.074;5.842;2023-05-17T12:20:09;19.61;77.11
66035;HTU21D;52805;51.074;5.842;2023-05-17T12:22:51;19.41;80.07
66035;HTU21D;52805;51.074;5.842;2023-05-17T12:25:23;19.33;78.03
66035;HTU21D;52805;51.074;5.842;2023-05-17T12:28:15;19.35;69.32
66035;HTU21D;52805;51.074;5.842;2023-05-17T12:30:43;19.32;74.76
66035;HTU21D;52805;51.074;5.842;2023-05-17T12:33:09;19.39;71.72
66035;HTU21D;52805;51.074;5.842;2023-05-17T12:35:35;19.38;67.43
66035;HTU21D;52805;51.074;5.842;2023-05-17T12:38:02;19.41;67.43
66035;HTU21D;52805;51.074;5.842;2023-05-17T12:40:28;19.38;64.34
66035;HTU21D;52805;51.074;5.842;2023-05-17T12:43:01;19.42;66.21
66035;HTU21D;52805;51.074;5.842;2023-05-17T12:45:28;19.45;67.04
66035;HTU21D;52805;51.074;5.842;2023-05-17T12:47:53;19.48;64.03
66035;HTU21D;52805;51.074;5.842;2023-05-17T12:50:28;19.61;63.64
66035;HTU21D;52805;51.074;5.842;2023-05-17T12:52:56;19.65;62.81
66035;HTU21D;52805;51.074;5.842;2023-05-17T12:55:22;19.71;61.30
66035;HTU21D;52805;51.074;5.842;2023-05-17T12:57:52;19.87;63.55
66035;HTU21D;52805;51.074;5.842;2023-05-17T13:00:19;20.10;61.35
66035;HTU21D;52805;51.074;5.842;2023-05-17T13:02:45;20.21;59.09
66035;HTU21D;52805;51.074;5.842;2023-05-17T13:05:18;20.24;60.13
66035;HTU21D;52805;51.074;5.842;2023-05-17T13:07:46;20.26;59.25
66035;HTU21D;52805;51.074;5.842;2023-05-17T13:10:38;20.21;59.09
66035;HTU21D;52805;51.074;5.842;2023-05-17T13:13:04;20.11;58.69
66035;HTU21D;52805;51.074;5.842;2023-05-17T13:15:32;20.04;58.51
66035;HTU21D;52805;51.074;5.842;2023-05-17T13:17:59;20.02;54.68
66035;HTU21D;52805;51.074;5.842;2023-05-17T13:20:26;20.07;59.54
66035;HTU21D;52805;51.074;5.842;2023-05-17T13:22:52;20.24;50.53
66035;HTU21D;52805;51.074;5.842;2023-05-17T13:25:18;20.28;57.73
66035;HTU21D;52805;51.074;5.842;2023-05-17T13:27:45;20.40;57.88
66035;HTU21D;52805;51.074;5.842;2023-05-17T13:30:15;20.35;56.10
66035;HTU21D;52805;51.074;5.842;2023-05-17T13:32:42;20.34;59.20
66035;HTU21D;52805;51.074;5.842;2023-05-17T13:35:09;20.49;54.10
66035;HTU21D;52805;51.074;5.842;2023-05-17T13:37:35;20.55;53.87
66035;HTU21D;52805;51.074;5.842;2023-05-17T13:40:02;20.64;53.75
66035;HTU21D;52805;51.074;5.842;2023-05-17T13:42:28;20.81;53.43
66035;HTU21D;52805;51.074;5.842;2023-05-17T13:44:54;20.80;51.74
66035;HTU21D;52805;51.074;5.842;2023-05-17T13:47:19;20.83;53.81
66035;HTU21D;52805;51.074;5.842;2023-05-17T13:49:45;20.92;45.41
66035;HTU21D;52805;51.074;5.842;2023-05-17T13:52:11;21.04;52.07
66035;HTU21D;52805;51.074;5.842;2023-05-17T13:54:37;21.18;51.03
66035;HTU21D;52805;51.074;5.842;2023-05-17T13:57:04;21.33;46.98
66035;HTU21D;52805;51.074;5.842;2023-05-17T13:59:30;21.38;46.76
66035;HTU21D;52805;51.074;5.842;2023-05-17T14:01:56;21.37;49.34
66035;HTU21D;52805;51.074;5.842;2023-05-17T14:04:22;21.40;48.12
66035;HTU21D;52805;51.074;5.842;2023-05-17T14:06:48;21.45;47.44
66035;HTU21D;52805;51.074;5.842;2023-05-17T14:09:14;21.60;48.51
66035;HTU21D;52805;51.074;5.842;2023-05-17T14:11:40;21.74;46.64
66035;HTU21D;52805;51.074;5.842;2023-05-17T14:14:05;21.77;43.66
66035;HTU21D;52805;51.074;5.842;2023-05-17T14:16:31;21.61;45.35
66035;HTU21D;52805;51.074;5.842;2023-05-17T14:18:57;21.24;41.58
66035;HTU21D;52805;51.074;5.842;2023-05-17T14:21:22;21.00;43.26
66035;HTU21D;52805;51.074;5.842;2023-05-17T14:23:48;20.89;39.94
66035;HTU21D;52805;51.074;5.842;2023-05-17T14:26:14;20.91;43.13
66035;HTU21D;52805;51.074;5.842;2023-05-17T14:28:40;20.89;37.69
66035;HTU21D;52805;51.074;5.842;2023-05-17T14:31:07;20.95;43.35
66035;HTU21D;52805;51.074;5.842;2023-05-17T14:33:33;21.06;41.82
66035;HTU21D;52805;51.074;5.842;2023-05-17T14:35:59;20.98;43.02
66035;HTU21D;52805;51.074;5.842;2023-05-17T14:38:25;21.07;44.80
66035;HTU21D;52805;51.074;5.842;2023-05-17T14:40:51;21.25;43.66
66035;HTU21D;52805;51.074;5.842;2023-05-17T14:43:16;21.34;42.16
66035;HTU21D;52805;51.074;5.842;2023-05-17T14:45:43;21.34;42.07
66035;HTU21D;52805;51.074;5.842;2023-05-17T14:48:09;21.35;41.53
66035;HTU21D;52805;51.074;5.842;2023-05-17T14:50:35;21.33;42.87
66035;HTU21D;52805;51.074;5.842;2023-05-17T14:53:00;21.32;42.67
66035;HTU21D;52805;51.074;5.842;2023-05-17T14:55:26;21.42;43.14
66035;HTU21D;52805;51.074;5.842;2023-05-17T14:57:52;21.48;41.33
66035;HTU21D;52805;51.074;5.842;2023-05-17T15:00:20;21.52;43.10
66035;HTU21D;52805;51.074;5.842;2023-05-17T15:02:46;21.68;40.10
66035;HTU21D;52805;51.074;5.842;2023-05-17T15:05:11;21.61;35.44
66035;HTU21D;52805;51.074;5.842;2023-05-17T15:07:37;21.43;39.01
66035;HTU21D;52805;51.074;5.842;2023-05-17T15:10:03;21.36;37.82
66035;HTU21D;52805;51.074;5.842;2023-05-17T15:12:30;21.33;40.06
66035;HTU21D;52805;51.074;5.842;2023-05-17T15:14:57;21.40;39.13
66035;HTU21D;52805;51.074;5.842;2023-05-17T15:17:23;21.46;39.76
66035;HTU21D;52805;51.074;5.842;2023-05-17T15:19:49;21.51;39.03
66035;HTU21D;52805;51.074;5.842;2023-05-17T15:22:15;21.52;29.95
66035;HTU21D;52805;51.074;5.842;2023-05-17T15:24:44;21.58;35.17
66035;HTU21D;52805;51.074;5.842;2023-05-17T15:27:09;21.51;37.57
66035;HTU21D;52805;51.074;5.842;2023-05-17T15:29:40;21.49;35.82
66035;HTU21D;52805;51.074;5.842;2023-05-17T15:32:07;21.43;38.34
66035;HTU21D;52805;51.074;5.842;2023-05-17T15:34:33;21.47;40.37
66035;HTU21D;52805;51.074;5.842;2023-05-17T15:37:01;21.59;39.25
66035;HTU21D;52805;51.074;5.842;2023-05-17T15:39:27;21.65;37.96